Mariano Mariani

Scout - Cagliari
3 Apr 2027
Samstag
Verarbeitung

Persönlichkeit

Anpassungsfähigkeit (18) Ehrgeiz (2) Kontroverse (4) Loyalität (16) Druck (13) Professionalität (9) Fairness (5) Temperament (11)

Profil

Trainerstil Demokratisch
Lizenz Nationale A
Entschlossenheit 9
Menschenführung 7
Motivation 6
Disziplin 5
Arbeitszufriedenheit
50%
Ermüdung
0%
Rolle Scout
Gehalt 77.2K p/W
Vertrag 14.03.2029

Leistung

Verhalten Normal
Trainingseffektivität
24%
Spielerentwicklung
45%
Verletzungsprävention
30%
Taktische Umsetzung
60%

Letzte Ereignisse

Spieler begutachtet jetzt
Nahm an einer Scouting-Besprechung teil jetzt
Nahm an einer Scouting-Besprechung teil jetzt
Spieler begutachtet jetzt
Spieler begutachtet 7T her
Spieler begutachtet 7T her
Spieler begutachtet 7T her
Spieler begutachtet 7T her

Aktuell beobachtet

149
Spieler Verein Status Fähigkeit Vertrauen Beobachtet Zuletzt beobachtet Letzte Stimme
Ejike Opara Vitoria Guimaraes Aktiv 110 / 114 40% 2 02.04.2027 -
Eliezer Mayenda Stade Rennais Aktiv 124 / 130 40% 1 02.04.2027 -
Jonás Luna Osasuna Aktiv 113 / 124 40% 3 01.04.2027 -
Milutin Osmajić Genoa Aktiv 111 / 125 40% 1 01.04.2027 -
Lucas Villalba Botafogo Aktiv 117 / 127 40% 2 30.03.2027 -
Gonzalo Plata Dinamo Moscow Aktiv 129 / 131 40% 1 30.03.2027 -
Stiven Shpendi Empoli Aktiv 120 / 121 40% 4 29.03.2027 -
Uchenna Ogundu FC Augsburg Aktiv 118 / 126 40% 1 29.03.2027 -
Ignacio Russo Tigre Aktiv 121 / 129 40% 5 27.03.2027 -
Luciano Juba Bahia Aktiv 123 / 140 40% 1 27.03.2027 -
Andrés Gómez Vasco da Gama Aktiv 144 / 123 40% 1 27.03.2027 -
Nilson Angulo Sunderland Aktiv 114 / 131 40% 1 27.03.2027 -
Santiago Montiel Independiente Aktiv 136 / 127 40% 2 25.03.2027 -
Luis Fernando Santa Clara Aktiv 114 / 98 40% 1 25.03.2027 -
Mads Bidstrup Olympique Lyonnais Aktiv 142 / 139 40% 1 25.03.2027 -
Umeh Emmanuel Zurich Aktiv 109 / 113 40% 2 24.03.2027 -
Danilo Botafogo Abgelehnt 134 / 148 40% 1 24.03.2027 Mehr Infos nötig
Saël Kumbedi VfL Wolfsburg Aktiv 121 / 132 40% 1 24.03.2027 -
Felipe Augusto Zenit Aktiv 143 / 127 40% 1 24.03.2027 -
Ajay Matthews Millwall Aktiv 113 / 104 40% 2 22.03.2027 -
Vinicius Tobias Shakhtar Aktiv 124 / 133 40% 2 21.03.2027 -
Thiago Balbuena Lanús Aktiv 89 / 108 40% 4 19.03.2027 -
Ísak Jóhannesson Köln Aktiv 142 / 132 40% 1 19.03.2027 -
Brenner Vasco da Gama Aktiv 113 / 115 40% 2 19.03.2027 -
Markus Jensen Nacional Aktiv 118 / 109 40% 1 19.03.2027 -
Iván Morales Argentinos Juniors Aktiv 130 / 126 40% 1 19.03.2027 -
Santiago González Sporting Cristal Aktiv 133 / 106 40% 2 18.03.2027 -
Andrés Amaya Fortaleza CEIF Aktiv 107 / 126 40% 1 18.03.2027 -
Pavel Meleshin Sochi Aktiv 107 / 128 40% 1 15.03.2027 -
Juan Manuel Boselli Krasnodar Aktiv 124 / 124 40% 1 15.03.2027 -
Rhian Brewster Derby County Aktiv 112 / 127 40% 1 14.03.2027 -
Astemir Khashkulov Volga Aktiv 100 / 104 40% 1 14.03.2027 -
Jerónimo Russo Newell's Old Boys Aktiv 115 / 101 40% 1 12.03.2027 -
Pablo Suárez Rentistas Aktiv 103 / 85 40% 1 12.03.2027 -
Alexander Díaz Deportivo Riestra Aktiv 120 / 127 40% 2 11.03.2027 -
Franco Calderón Sarmiento Aktiv 87 / 103 40% 1 10.03.2027 -
Roko Brajković Hajduk Split Aktiv 107 / 101 40% 2 09.03.2027 -
David Romero Parma Aktiv 132 / 134 40% 5 08.03.2027 -
Facundo Krüger Temperley Aktiv 97 / 116 40% 1 08.03.2027 -
Víctor Guzmán Sporting CP Aktiv 93 / 93 40% 1 07.03.2027 -
Ignacio Giacinti Patronato Aktiv 99 / 83 40% 1 07.03.2027 -
Abubakar Garba Nasarawa United Aktiv 100 / 89 40% 1 05.03.2027 -
Jhon Aponza Boca Juniors Aktiv 98 / 114 40% 1 04.03.2027 -
Exequiel Zeballos Boca Juniors Aktiv 129 / 142 40% 3 03.03.2027 -
Ramiro Ruiz Rodríguez Atlético Tucumán Aktiv 112 / 134 40% 3 03.03.2027 -
Borna Knezović Casarano Aktiv 114 / 96 40% 2 02.03.2027 -
Maksim Samorodov Akhmat Grozny Aktiv 120 / 127 40% 4 25.02.2027 -
Jan Hurtado Volos NPS Aktiv 124 / 126 40% 2 25.02.2027 -
Daniel Barrea Godoy Cruz Aktiv 118 / 116 40% 2 23.02.2027 -
Lassina Traoré Shakhtar Aktiv 120 / 114 40% 1 21.02.2027 -
Fabrizio Sartori Independiente Rivadavia Aktiv 109 / 103 40% 2 20.02.2027 -
Lucas Besozzi Lanús Aktiv 102 / 105 40% 2 20.02.2027 -
Eguinaldo Shakhtar Aktiv 124 / 134 40% 2 19.02.2027 -
Sandro Kulenović Torino Aktiv 123 / 130 40% 1 19.02.2027 -
Brayan Gil Baltika Aktiv 128 / 116 40% 3 18.02.2027 -
Matías Giménez Rojas Argentinos Juniors Aktiv 107 / 106 40% 1 18.02.2027 -
Jacques Siwe Rubin Aktiv 117 / 109 40% 1 17.02.2027 -
Tashreeq Matthews Mamelodi Sundowns Aktiv 104 / 103 40% 1 17.02.2027 -
Tamerlan Musaev CSKA Moscow Aktiv 113 / 114 40% 2 16.02.2027 -
Moses Cobnan Krasnodar Aktiv 110 / 119 40% 6 10.02.2027 -
Yoshan Valois Lanús Aktiv 124 / 136 40% 2 05.02.2027 -
Mykola Haiduchyk Polissia Aktiv 104 / 104 40% 1 05.02.2027 -
Matvii Ponomarenko Dynamo Kyiv Verloren 110 / 119 40% 1 26.01.2027 -
Yarden Shua Beitar Jerusalem Aktiv 112 / 144 40% 2 25.01.2027 -
Juan Bisanz Huracán Aktiv 132 / 113 40% 4 18.01.2027 -
Emil Ceïde Rosenborg Aktiv 118 / 121 40% 2 31.12.2026 -
Alan Lescano Argentinos Juniors Aktiv 125 / 126 40% 1 30.12.2026 -
Marlon Gomes Shakhtar Aktiv 137 / 135 40% 2 28.12.2026 -
Damián Puebla Orenburg Aktiv 115 / 128 40% 1 28.12.2026 -
Santiago Pierotti Lecce Aktiv 119 / 120 40% 1 27.12.2026 -
Rüstəm Əhmədzadə Sumgayit Aktiv 105 / 116 40% 1 26.12.2026 -
Filip Stojilković Pisa Aktiv 133 / 125 40% 2 24.12.2026 -
Yegor Golenkov Rostov Aktiv 127 / 113 40% 3 24.12.2026 -
Ali Youssef Apollon Verloren 134 / 121 40% 1 23.12.2026 -
Camillo Tavernelli Arezzo Aktiv 111 / 108 40% 2 21.12.2026 -
Victor Parada Spartak Moscow Aktiv 129 / 115 40% 1 21.12.2026 -
John Yeboah Venezia Aktiv 122 / 109 40% 1 21.12.2026 -
Kévin Denkey FC Cincinnati Aktiv 133 / 111 40% 4 18.12.2026 -
Håkon Evjen Bodo/Glimt Aktiv 130 / 127 40% 1 18.12.2026 -
Antoine Hainaut Venezia Aktiv 135 / 115 40% 2 16.12.2026 -
Nazar Voloshyn Dynamo Kyiv Aktiv 123 / 121 40% 1 16.12.2026 -
Indiana Vassilev Philadelphia Union Verloren 112 / 112 40% 2 12.12.2026 -
Assad Al Hamlawi Universitatea Craiova Aktiv 116 / 124 40% 3 10.12.2026 -
Wessam Abou Ali Columbus Crew Aktiv 123 / 120 40% 1 07.12.2026 -
Bojan Radulović Huddersfield Town Aktiv 119 / 120 40% 1 06.12.2026 -
Adrian Svanbäck BK Hacken Aktiv 119 / 117 40% 2 04.12.2026 -
Rocco Vata Watford Aktiv 119 / 127 40% 1 03.12.2026 -
Yorbe Vertessen Red Bull Salzburg Aktiv 132 / 122 40% 3 02.12.2026 -
Kauã Elias Shakhtar Aktiv 120 / 128 40% 1 28.11.2026 -
Sergey Pinyaev Lokomotiv Moscow Aktiv 120 / 121 40% 4 27.11.2026 -
Rodrigo Huescas FC Copenhagen Aktiv 141 / 136 40% 1 27.11.2026 -
Danil Glebov Dinamo Moscow Aktiv 135 / 119 40% 1 26.11.2026 -
Arthur Zagré Torino Aktiv 112 / 130 40% 1 23.11.2026 -
Dion Beljo Dinamo Zagreb Aktiv 136 / 130 40% 1 22.11.2026 -
Vinko Rozić Istra 1961 Aktiv 113 / 115 40% 1 22.11.2026 -
Matteo Rover Reggiana Aktiv 127 / 113 40% 1 20.11.2026 -
Fernando Costanza Krylya Sovetov Aktiv 132 / 119 40% 1 18.11.2026 -
Tommaso Berti Cesena Aktiv 131 / 127 40% 1 18.11.2026 -
Chico Banza Zamalek Aktiv 112 / 119 40% 1 14.11.2026 -
Olakunle Olusegun Rostov Aktiv 125 / 116 40% 1 13.11.2026 -
Tomás Chancalay Minnesota United FC Aktiv 135 / 122 40% 5 12.11.2026 -
Abu Kamara Portsmouth Aktiv 110 / 111 40% 3 12.11.2026 -
Tiago Palacios Estudiantes Aktiv 118 / 124 40% 1 12.11.2026 -
Leonardo Campana New England Revolution Aktiv 137 / 138 40% 3 11.11.2026 -
Matyáš Vojta Sparta Prague Aktiv 119 / 120 40% 1 09.11.2026 -
Tadeo Allende Inter Miami CF Aktiv 123 / 107 40% 2 08.11.2026 -
Jonathan Rowe Bologna Aktiv 140 / 134 40% 2 07.11.2026 -
Marezi Portsmouth Aktiv 122 / 113 40% 1 07.11.2026 -
Alex Luna Instituto Aktiv 145 / 122 40% 2 05.11.2026 -
Jeong Sang-Bin St. Louis CITY SC Aktiv 121 / 104 40% 1 05.11.2026 -
Frederik Ihler IF Elfsborg Aktiv 123 / 106 40% 1 05.11.2026 -
Jack McGlynn Houston Dynamo Aktiv 131 / 118 40% 1 05.11.2026 -
John Mercado Sparta Prague Aktiv 120 / 128 40% 1 29.10.2026 -
Kevin Zenón Boca Juniors Aktiv 132 / 138 40% 1 28.10.2026 -
Jens Petter Hauge Bodo/Glimt Aktiv 149 / 140 40% 1 26.10.2026 -
Talles Magno New York City Aktiv 125 / 131 40% 1 26.10.2026 -
Ilias Sebaoui Sint-Truiden Aktiv 126 / 132 40% 1 19.10.2026 -
Oleh Ocheretko Shakhtar Aktiv 138 / 127 40% 1 19.10.2026 -
Alessandro Bianco Modena Aktiv 126 / 120 40% 2 18.10.2026 -
Tobias Bech AGF Aktiv 116 / 131 40% 2 15.10.2026 -
Martín Ortega Newell's Old Boys Aktiv 129 / 120 40% 1 12.10.2026 -
Franco Fagúndez Estudiantes Aktiv 100 / 125 40% 2 08.10.2026 -
Juan-José Perea Zurich Aktiv 120 / 117 40% 1 07.10.2026 -
Luca Orellano Monterrey Aktiv 122 / 137 40% 3 06.10.2026 -
David Da Costa Portland Timbers Aktiv 127 / 120 40% 2 04.10.2026 -
Felipe Peña Biafore Lanús Aktiv 116 / 113 40% 1 04.10.2026 -
Erik Lira Cruz Azul Aktiv 150 / 126 40% 1 02.10.2026 -
Patrik Wålemark Lech Aktiv 119 / 128 40% 1 01.10.2026 -
César Ibáñez Huracán Aktiv 125 / 112 40% 1 01.10.2026 -
Brayan León Mamelodi Sundowns Aktiv 112 / 131 40% 1 30.09.2026 -
Bryan González Guadalajara Aktiv 136 / 145 40% 1 30.09.2026 -
Brian Gutiérrez Guadalajara Aktiv 128 / 131 40% 1 30.09.2026 -
Nicolás Fonseca Leon Aktiv 125 / 129 40% 1 28.09.2026 -
Yousef Salech Cardiff City Aktiv 133 / 114 40% 1 27.09.2026 -
Ozziel Herrera Tigres Aktiv 124 / 126 40% 1 22.09.2026 -
Michy Fellaini KV Oostende Aktiv 130 / 132 40% 1 22.09.2026 -
Brandon Vázquez Austin FC Aktiv 102 / 104 40% 1 21.09.2026 -
Adrián Sánchez Belgrano Aktiv 117 / 120 40% 1 20.09.2026 -
Josh Sargent Toronto FC Aktiv 128 / 117 40% 1 19.09.2026 -
Jefry Zapata Once Caldas Aktiv 124 / 124 40% 1 18.09.2026 -
Taisei Miyashiro Seattle Sounders Aktiv 141 / 126 40% 2 17.09.2026 -
Cesar Corona Veracruz Aktiv 151 / 145 40% 2 16.09.2026 -
Juan Manuel Sanabria Real Salt Lake Aktiv 123 / 121 40% 1 16.09.2026 -
Lasse Berg Johnsen Sporting Kansas City Aktiv 142 / 119 40% 1 16.09.2026 -
Matija Frigan Parma Aktiv 125 / 120 40% 1 16.09.2026 -
Williams Alarcón Boca Juniors Aktiv 136 / 141 40% 1 14.09.2026 -
Adalberto Carrasquilla Pumas UNAM Aktiv 120 / 119 40% 1 14.09.2026 -
Andrés Herrera Columbus Crew Aktiv 129 / 115 40% 1 11.09.2026 -
Alan Velasco Boca Juniors Aktiv 138 / 113 40% 1 07.09.2026 -